Milas, Turkey
Current Conditions -  °F | °C
As of 7:20 PM on Friday 24 Oct 2014 (Local Time) from LTFE Reporting Station
Broken Clouds Broken Clouds  
Wind Chill: 18°   Ceiling: 9000
Heat Index: 18°   Visibility: 6mi
Dew Point: 16°   Wind: 6mph
Humidity: 88%   Direction: 50°NE
Pressure: 29.8"   Gusts: NA
Location:  37.32°N, 27.77°E
Report Text: LTFE 241620Z 05005KT 020V100 9999 FEW020CB SCT030 BKN090 18/16 Q1009 BECMG 16014KT
Loading
Personal Weather Stations






























Interactive Weather Map
Tropical Storm Tracking
New forecast layout! Learn more

10-Day Weather Forecast

Advertisements
Track Severe Weather on mobile